createdAt,value
2023-02-05T00:01:48.683Z,2.50
2023-02-05T00:04:16.672Z,2.53
2023-02-05T00:06:44.700Z,4.03
2023-02-05T00:09:12.712Z,3.70
2023-02-05T00:11:42.175Z,2.97
2023-02-05T00:14:10.982Z,2.87
2023-02-05T00:16:38.946Z,2.10
2023-02-05T00:19:06.896Z,2.03
2023-02-05T00:21:35.216Z,3.43
2023-02-05T00:24:03.207Z,2.67
2023-02-05T00:26:31.270Z,3.47
2023-02-05T00:29:00.543Z,2.57
2023-02-05T00:31:28.539Z,2.03
2023-02-05T00:33:56.556Z,1.67
2023-02-05T00:36:24.517Z,1.70
2023-02-05T00:38:53.154Z,2.57
2023-02-05T00:41:21.264Z,2.57
2023-02-05T00:43:49.164Z,2.97
2023-02-05T00:46:18.617Z,3.50
2023-02-05T00:48:46.601Z,4.60
2023-02-05T00:51:14.493Z,2.30
2023-02-05T00:53:42.416Z,3.03
2023-02-05T00:56:10.466Z,2.20
2023-02-05T00:58:38.694Z,2.47
2023-02-05T01:01:07.255Z,1.73
2023-02-05T01:03:36.610Z,2.10
2023-02-05T01:06:04.561Z,2.53
2023-02-05T01:08:32.456Z,3.57
2023-02-05T01:11:01.326Z,1.50
2023-02-05T01:13:29.286Z,2.27
2023-02-05T01:15:57.223Z,2.90
2023-02-05T01:18:25.160Z,3.43
2023-02-05T01:20:54.424Z,1.53
2023-02-05T01:23:22.328Z,4.07
2023-02-05T01:25:50.249Z,2.80
2023-02-05T01:28:18.325Z,1.93
2023-02-05T01:30:48.885Z,1.77
2023-02-05T01:33:16.968Z,1.50
2023-02-05T01:35:45.020Z,3.77
2023-02-05T01:38:14.759Z,3.27
2023-02-05T01:40:42.904Z,3.20
2023-02-05T01:43:13.342Z,4.13
2023-02-05T01:46:19.707Z,2.30
2023-02-05T01:48:50.696Z,2.60
2023-02-05T01:51:18.680Z,2.50
2023-02-05T01:53:49.573Z,5.17
2023-02-05T01:56:21.065Z,2.70
2023-02-05T01:58:52.159Z,1.93
2023-02-05T02:01:20.177Z,2.27
2023-02-05T02:03:49.224Z,2.57
2023-02-05T02:06:17.183Z,4.57
2023-02-05T02:08:45.084Z,1.93
2023-02-05T02:11:17.346Z,2.87
2023-02-05T02:13:46.752Z,1.97
2023-02-05T02:16:15.709Z,3.40
2023-02-05T02:18:43.937Z,1.80
2023-02-05T02:21:30.527Z,4.57
2023-02-05T02:24:19.748Z,2.23
2023-02-05T02:26:58.367Z,2.20
2023-02-05T02:29:33.784Z,2.50
2023-02-05T02:32:05.451Z,2.20
2023-02-05T02:34:38.126Z,3.03
2023-02-05T02:37:09.740Z,3.63
2023-02-05T02:39:41.681Z,2.37
2023-02-05T02:42:13.232Z,2.13
2023-02-05T02:44:45.352Z,2.50
2023-02-05T02:47:17.136Z,1.97
2023-02-05T02:49:49.205Z,4.03
2023-02-05T02:52:20.154Z,2.90
2023-02-05T02:54:50.577Z,3.73
2023-02-05T02:57:20.201Z,4.73
2023-02-05T02:59:50.767Z,1.83
2023-02-05T03:02:19.106Z,4.07
2023-02-05T03:04:50.354Z,2.90
2023-02-05T03:07:22.177Z,2.47
2023-02-05T03:09:53.360Z,3.67
2023-02-05T03:12:21.324Z,2.67
2023-02-05T03:14:50.688Z,1.63
2023-02-05T03:17:19.890Z,1.87
2023-02-05T03:19:48.388Z,1.37
2023-02-05T03:22:16.326Z,1.80
2023-02-05T03:24:44.318Z,3.73
2023-02-05T03:27:12.207Z,4.03
2023-02-05T03:29:44.860Z,3.00
2023-02-05T03:32:24.888Z,3.07
2023-02-05T03:35:03.022Z,3.33
2023-02-05T03:37:38.801Z,1.47
2023-02-05T03:40:13.840Z,2.40
2023-02-05T03:42:47.616Z,3.83
2023-02-05T03:45:22.824Z,2.60
2023-02-05T03:48:01.997Z,2.60
2023-02-05T03:50:32.936Z,2.37
2023-02-05T03:53:06.275Z,1.70
2023-02-05T03:55:37.910Z,1.90
2023-02-05T03:58:08.376Z,2.00
2023-02-05T04:00:36.437Z,2.40
2023-02-05T04:03:06.092Z,3.83
2023-02-05T04:05:34.434Z,1.70
2023-02-05T04:08:02.970Z,2.60
2023-02-05T04:10:30.875Z,3.43
2023-02-05T04:12:58.768Z,2.03
2023-02-05T04:15:27.172Z,2.03
2023-02-05T04:17:57.904Z,1.97
2023-02-05T04:20:27.259Z,4.07
2023-02-05T04:22:55.141Z,2.97
2023-02-05T04:25:23.039Z,2.67
2023-02-05T04:27:51.081Z,3.47
2023-02-05T04:30:19.594Z,3.57
2023-02-05T04:32:47.476Z,5.23
2023-02-05T04:35:15.501Z,3.23
2023-02-05T04:37:44.760Z,2.40
2023-02-05T04:40:13.059Z,3.93
2023-02-05T04:42:41.015Z,2.33
2023-02-05T04:45:09.920Z,2.23
2023-02-05T04:47:37.859Z,2.70
2023-02-05T04:50:06.157Z,3.07
2023-02-05T04:52:34.105Z,1.87
2023-02-05T04:55:03.375Z,3.30
2023-02-05T04:57:31.768Z,2.27
2023-02-05T04:59:59.671Z,3.33
2023-02-05T05:02:27.616Z,2.90
2023-02-05T05:04:55.524Z,3.37
2023-02-05T05:07:23.404Z,2.17
2023-02-05T05:09:52.460Z,1.53
2023-02-05T05:12:21.918Z,1.73
2023-02-05T05:14:49.834Z,2.13
2023-02-05T05:17:17.752Z,2.43
2023-02-05T05:19:45.616Z,1.90
2023-02-05T05:22:13.504Z,2.70
2023-02-05T05:24:41.401Z,1.70
2023-02-05T05:27:09.339Z,3.20
2023-02-05T05:29:38.939Z,3.27
2023-02-05T05:32:06.890Z,1.60
2023-02-05T05:34:34.872Z,2.13
2023-02-05T05:37:02.826Z,1.80
2023-02-05T05:39:48.276Z,4.00
2023-02-05T05:42:33.681Z,2.77
2023-02-05T05:45:02.979Z,2.20
2023-02-05T05:47:30.914Z,2.00
2023-02-05T05:49:58.794Z,4.13
2023-02-05T05:52:26.684Z,2.30
2023-02-05T05:54:54.599Z,2.20
2023-02-05T05:57:22.461Z,2.43
2023-02-05T05:59:50.391Z,2.87
2023-02-05T06:02:19.701Z,2.63
2023-02-05T06:04:47.700Z,2.30
2023-02-05T06:07:15.667Z,3.83
2023-02-05T06:09:43.587Z,2.37
2023-02-05T06:12:11.862Z,2.43
2023-02-05T06:14:39.819Z,2.57
2023-02-05T06:17:09.014Z,2.20
2023-02-05T06:19:38.290Z,1.90
2023-02-05T06:22:06.217Z,3.80
2023-02-05T06:24:34.135Z,2.23
2023-02-05T06:27:02.331Z,2.57
2023-02-05T06:29:30.264Z,3.73
2023-02-05T06:31:58.203Z,4.93
2023-02-05T06:34:26.142Z,6.10
2023-02-05T06:36:55.828Z,1.97
2023-02-05T06:39:25.250Z,2.97
2023-02-05T06:41:53.258Z,2.60
2023-02-05T06:44:21.402Z,2.30
2023-02-05T06:46:49.307Z,2.73
2023-02-05T06:49:17.322Z,2.77
2023-02-05T06:51:45.218Z,2.37
2023-02-05T06:54:14.845Z,2.93
2023-02-05T06:56:42.768Z,5.00
2023-02-05T06:59:10.668Z,3.67
2023-02-05T07:01:38.657Z,1.67
2023-02-05T07:04:06.700Z,2.40
2023-02-05T07:06:34.636Z,6.70
2023-02-05T07:09:02.524Z,3.87
2023-02-05T07:11:31.848Z,3.27
2023-02-05T07:14:01.894Z,3.13
2023-02-05T07:16:30.755Z,2.60
2023-02-05T07:18:59.132Z,3.50
2023-02-05T07:21:27.021Z,3.50
2023-02-05T07:23:54.951Z,2.87
2023-02-05T07:26:23.863Z,4.97
2023-02-05T07:28:53.167Z,3.20
2023-02-05T07:31:21.367Z,2.97
2023-02-05T07:33:49.862Z,2.50
2023-02-05T07:36:19.014Z,3.40
2023-02-05T07:38:48.103Z,2.47
2023-02-05T07:41:17.467Z,2.90
2023-02-05T07:43:45.591Z,3.97
2023-02-05T07:46:16.024Z,2.43
2023-02-05T07:48:43.970Z,4.83
2023-02-05T07:51:16.967Z,3.73
2023-02-05T07:53:44.906Z,6.23
2023-02-05T07:56:12.839Z,4.43
2023-02-05T07:58:40.884Z,2.67
2023-02-05T08:01:09.270Z,2.23
2023-02-05T08:03:38.603Z,5.17
2023-02-05T08:06:07.286Z,2.63
2023-02-05T08:08:35.624Z,3.00
2023-02-05T08:11:06.264Z,5.17
2023-02-05T08:13:34.723Z,2.37
2023-02-05T08:16:06.212Z,2.23
2023-02-05T08:18:34.339Z,3.63
2023-02-05T08:21:03.629Z,3.07
2023-02-05T08:23:31.654Z,2.57
2023-02-05T08:26:00.221Z,3.07
2023-02-05T08:28:29.185Z,4.23
2023-02-05T08:30:57.636Z,4.33
2023-02-05T08:33:25.899Z,2.10
2023-02-05T08:35:53.817Z,3.97
2023-02-05T08:38:23.148Z,2.13
2023-02-05T08:40:51.072Z,2.30
2023-02-05T08:43:18.974Z,3.00
2023-02-05T08:45:48.530Z,3.00
2023-02-05T08:48:16.475Z,2.73
2023-02-05T08:50:46.383Z,4.00
2023-02-05T08:53:14.303Z,2.33
2023-02-05T08:55:43.640Z,2.67
2023-02-05T08:58:11.571Z,2.77
2023-02-05T09:00:40.140Z,2.87
2023-02-05T09:03:08.833Z,2.73
2023-02-05T09:05:36.862Z,2.40
2023-02-05T09:08:04.896Z,3.03
2023-02-05T09:10:32.796Z,3.00
2023-02-05T09:13:02.107Z,2.67
2023-02-05T09:15:31.115Z,2.50
2023-02-05T09:17:59.013Z,3.57
2023-02-05T09:20:26.934Z,3.50
2023-02-05T09:22:55.269Z,5.03
2023-02-05T09:25:23.247Z,2.50
2023-02-05T09:27:51.283Z,3.97
2023-02-05T09:30:20.941Z,2.63
2023-02-05T09:32:48.873Z,3.70
2023-02-05T09:35:16.967Z,3.23
2023-02-05T09:37:45.175Z,1.90
2023-02-05T09:40:21.697Z,2.30
2023-02-05T09:42:58.167Z,2.70
2023-02-05T09:45:47.252Z,2.33
2023-02-05T09:48:43.760Z,4.47
2023-02-05T09:51:12.801Z,5.63
2023-02-05T09:53:50.348Z,3.97
2023-02-05T09:56:18.617Z,2.73
2023-02-05T09:58:49.185Z,5.00
2023-02-05T10:01:24.064Z,3.77
2023-02-05T10:03:56.268Z,3.03
2023-02-05T10:06:56.379Z,3.57
2023-02-05T10:09:39.456Z,3.97
2023-02-05T10:12:15.358Z,3.27
2023-02-05T10:14:50.264Z,2.43
2023-02-05T10:17:29.644Z,4.57
2023-02-05T10:20:08.736Z,4.70
2023-02-05T10:22:42.169Z,3.53
2023-02-05T10:25:27.632Z,4.23
2023-02-05T10:28:01.833Z,4.50
2023-02-05T10:30:33.095Z,3.87
2023-02-05T10:33:08.342Z,3.17
2023-02-05T10:35:44.402Z,3.73
2023-02-05T10:38:15.704Z,3.90
2023-02-05T10:40:46.648Z,3.17
2023-02-05T10:43:20.944Z,3.93
2023-02-05T10:45:49.694Z,3.33
2023-02-05T10:48:30.758Z,4.57
2023-02-05T10:51:01.565Z,3.87
2023-02-05T10:53:30.673Z,3.50
2023-02-05T10:56:00.030Z,2.77
2023-02-05T10:58:44.942Z,2.77
2023-02-05T11:01:16.956Z,3.10
2023-02-05T11:03:54.064Z,2.57
2023-02-05T11:06:23.568Z,4.87
2023-02-05T11:08:51.513Z,4.50
2023-02-05T11:11:24.911Z,3.53
2023-02-05T11:13:57.887Z,4.73
2023-02-05T11:16:36.444Z,4.33
2023-02-05T11:19:05.891Z,3.27
2023-02-05T11:21:52.751Z,4.37
2023-02-05T11:24:26.467Z,4.80
2023-02-05T11:27:26.629Z,4.27
2023-02-05T11:29:54.901Z,6.17
2023-02-05T11:32:23.374Z,4.57
2023-02-05T11:35:10.866Z,2.60
2023-02-05T11:37:40.776Z,2.93
2023-02-05T11:40:20.206Z,2.20
2023-02-05T11:42:50.949Z,3.80
2023-02-05T11:45:20.041Z,5.33
2023-02-05T11:47:48.021Z,7.13
2023-02-05T11:50:25.957Z,2.67
2023-02-05T11:52:54.113Z,2.77
2023-02-05T11:55:28.953Z,6.10
2023-02-05T11:58:01.447Z,5.33
2023-02-05T12:00:30.419Z,3.50
2023-02-05T12:03:05.447Z,3.03
2023-02-05T12:05:38.399Z,5.17
2023-02-05T12:08:11.452Z,4.57
2023-02-05T12:10:44.376Z,5.00
2023-02-05T12:13:20.240Z,3.57
2023-02-05T12:15:55.372Z,2.67
2023-02-05T12:18:31.752Z,4.80
2023-02-05T12:21:09.883Z,4.90
2023-02-05T12:24:00.696Z,4.27
2023-02-05T12:26:33.957Z,4.83
2023-02-05T12:29:13.934Z,4.33
2023-02-05T12:31:57.395Z,3.60
2023-02-05T12:34:30.141Z,2.87
2023-02-05T12:37:16.008Z,2.93
2023-02-05T12:39:47.239Z,2.60
2023-02-05T12:42:33.848Z,2.77
2023-02-05T12:45:14.523Z,4.43
2023-02-05T12:47:51.578Z,3.67
2023-02-05T12:50:35.512Z,3.70
2023-02-05T12:53:16.588Z,5.53
2023-02-05T12:55:52.659Z,4.07
2023-02-05T12:58:21.254Z,2.97
2023-02-05T13:00:51.857Z,4.07
2023-02-05T13:03:26.659Z,3.90
2023-02-05T13:05:57.699Z,3.30
2023-02-05T13:08:36.349Z,4.63
2023-02-05T13:11:08.879Z,4.60
2023-02-05T13:13:43.677Z,3.63
2023-02-05T13:16:15.341Z,3.60
2023-02-05T13:18:45.896Z,3.27
2023-02-05T13:21:35.073Z,2.53
2023-02-05T13:24:35.234Z,3.97
2023-02-05T13:27:20.776Z,2.93
2023-02-05T13:29:51.583Z,6.13
2023-02-05T13:32:22.892Z,3.67
2023-02-05T13:34:54.588Z,3.63
2023-02-05T13:37:40.540Z,6.23
2023-02-05T13:40:23.392Z,3.00
2023-02-05T13:43:18.753Z,3.60
2023-02-05T13:46:35.412Z,3.47
2023-02-05T13:49:56.871Z,3.00
2023-02-05T13:52:57.288Z,3.43
2023-02-05T13:55:40.750Z,2.60
2023-02-05T13:58:15.505Z,4.20
2023-02-05T14:00:45.723Z,3.60
2023-02-05T14:03:26.996Z,4.50
2023-02-05T14:05:55.141Z,5.00
2023-02-05T14:08:25.554Z,4.93
2023-02-05T14:11:03.372Z,3.40
2023-02-05T14:13:34.379Z,2.73
2023-02-05T14:16:36.423Z,3.60
2023-02-05T14:19:22.564Z,6.23
2023-02-05T14:22:08.381Z,5.43
2023-02-05T14:24:42.355Z,4.10
2023-02-05T14:27:55.373Z,5.27
2023-02-05T14:30:50.386Z,3.70
2023-02-05T14:33:37.212Z,4.63
2023-02-05T14:36:33.186Z,3.93
2023-02-05T14:39:07.252Z,3.37
2023-02-05T14:41:50.725Z,3.73
2023-02-05T14:44:24.857Z,6.00
2023-02-05T14:47:01.011Z,3.03
2023-02-05T14:49:31.592Z,3.63
2023-02-05T14:52:01.660Z,5.57
2023-02-05T14:54:31.589Z,9.30
2023-02-05T14:57:13.219Z,6.33
2023-02-05T14:59:45.607Z,4.50
2023-02-05T15:02:52.803Z,3.47
2023-02-05T15:05:25.840Z,3.50
2023-02-05T15:07:55.671Z,3.83
2023-02-05T15:10:26.605Z,4.93
2023-02-05T15:13:04.268Z,3.30
2023-02-05T15:15:35.265Z,6.50
2023-02-05T15:18:11.886Z,3.43
2023-02-05T15:20:41.559Z,4.40
2023-02-05T15:23:19.604Z,5.67
2023-02-05T15:25:53.975Z,4.00
2023-02-05T15:28:28.501Z,5.43
2023-02-05T15:31:04.517Z,6.23
2023-02-05T15:33:43.665Z,5.63
2023-02-05T15:36:21.720Z,4.97
2023-02-05T15:38:54.582Z,4.60
2023-02-05T15:41:23.185Z,5.10
2023-02-05T15:44:01.760Z,4.83
2023-02-05T15:46:32.519Z,3.13
2023-02-05T15:49:02.461Z,3.83
2023-02-05T15:51:32.907Z,4.97
2023-02-05T15:54:03.423Z,4.17
2023-02-05T15:56:35.383Z,4.57
2023-02-05T15:59:06.412Z,14.63
2023-02-05T16:01:36.368Z,4.43
2023-02-05T16:04:17.899Z,5.80
2023-02-05T16:06:45.795Z,6.13
2023-02-05T16:09:18.316Z,5.27
2023-02-05T16:11:46.580Z,3.90
2023-02-05T16:14:15.910Z,4.27
2023-02-05T16:16:45.910Z,3.90
2023-02-05T16:19:19.480Z,4.33
2023-02-05T16:21:49.825Z,3.30
2023-02-05T16:24:24.212Z,4.43
2023-02-05T16:26:55.067Z,4.73
2023-02-05T16:29:29.606Z,6.67
2023-02-05T16:32:01.600Z,5.80
2023-02-05T16:34:32.179Z,5.23
2023-02-05T16:37:03.208Z,4.03
2023-02-05T16:39:38.811Z,6.67
2023-02-05T16:42:08.629Z,7.63
2023-02-05T16:44:38.012Z,6.67
2023-02-05T16:47:08.184Z,6.17
2023-02-05T16:49:37.536Z,5.13
2023-02-05T16:52:05.645Z,7.93
2023-02-05T16:54:38.018Z,7.47
2023-02-05T16:57:09.568Z,19.80
2023-02-05T16:59:48.180Z,11.93
2023-02-05T17:02:29.457Z,6.03
2023-02-05T17:05:01.436Z,9.57
2023-02-05T17:07:29.755Z,5.50
2023-02-05T17:10:18.215Z,6.17
2023-02-05T17:12:53.035Z,10.13
2023-02-05T17:15:42.078Z,7.07
2023-02-05T17:18:24.630Z,7.27
2023-02-05T17:21:24.273Z,10.63
2023-02-05T17:23:52.592Z,9.50
2023-02-05T17:26:21.175Z,18.57
2023-02-05T17:28:52.998Z,11.53
2023-02-05T17:31:25.895Z,11.83
2023-02-05T17:33:55.276Z,12.07
2023-02-05T17:36:25.130Z,11.17
2023-02-05T17:38:53.427Z,8.43
2023-02-05T17:41:40.770Z,11.80
2023-02-05T17:44:11.541Z,9.93
2023-02-05T17:46:39.604Z,8.47
2023-02-05T17:49:07.634Z,13.90
2023-02-05T17:51:41.531Z,8.13
2023-02-05T17:54:13.791Z,10.40
2023-02-05T17:56:44.403Z,14.13
2023-02-05T17:59:29.458Z,11.80
2023-02-05T18:01:58.438Z,12.77
2023-02-05T18:04:26.420Z,12.90
2023-02-05T18:06:57.655Z,12.27
2023-02-05T18:09:25.634Z,13.27
2023-02-05T18:11:53.556Z,14.93
2023-02-05T18:14:21.853Z,16.37
2023-02-05T18:16:49.784Z,16.83
2023-02-05T18:19:17.707Z,14.70
2023-02-05T18:21:47.322Z,14.43
2023-02-05T18:24:16.636Z,20.23
2023-02-05T18:26:45.604Z,9.20
2023-02-05T18:29:13.512Z,11.33
2023-02-05T18:31:41.507Z,10.40
2023-02-05T18:34:09.568Z,16.40
2023-02-05T18:36:37.509Z,17.60
2023-02-05T18:39:05.592Z,15.70
2023-02-05T18:41:35.122Z,14.50
2023-02-05T18:44:03.049Z,12.67
2023-02-05T18:46:31.014Z,10.33
2023-02-05T18:48:59.059Z,18.57
2023-02-05T18:51:27.043Z,13.53
2023-02-05T18:53:55.009Z,15.33
2023-02-05T18:56:24.553Z,11.10
2023-02-05T18:58:56.348Z,17.17
2023-02-05T19:01:24.380Z,16.50
2023-02-05T19:03:54.732Z,17.43
2023-02-05T19:06:30.235Z,15.23
2023-02-05T19:08:58.598Z,24.83
2023-02-05T19:11:28.276Z,20.00
2023-02-05T19:13:58.729Z,14.20
2023-02-05T19:16:28.186Z,11.50
2023-02-05T19:18:56.402Z,14.27
2023-02-05T19:21:26.799Z,11.73
2023-02-05T19:23:56.698Z,18.30
2023-02-05T19:26:27.246Z,14.30
2023-02-05T19:28:58.408Z,16.10
2023-02-05T19:31:28.121Z,16.37
2023-02-05T19:33:56.614Z,16.50
2023-02-05T19:36:25.637Z,15.60
2023-02-05T19:38:53.877Z,14.30
2023-02-05T19:41:23.154Z,15.43
2023-02-05T19:43:52.476Z,16.77
2023-02-05T19:46:23.430Z,16.77
2023-02-05T19:48:51.409Z,14.30
2023-02-05T19:51:19.612Z,15.07
2023-02-05T19:53:47.864Z,13.50
2023-02-05T19:56:17.998Z,15.93
2023-02-05T19:58:47.650Z,24.63
2023-02-05T20:01:17.790Z,18.03
2023-02-05T20:03:47.434Z,15.03
2023-02-05T20:06:17.396Z,20.07
2023-02-05T20:08:46.019Z,18.27
2023-02-05T20:11:14.688Z,14.17
2023-02-05T20:13:43.386Z,16.97
2023-02-05T20:16:14.344Z,15.03
2023-02-05T20:18:42.878Z,15.73
2023-02-05T20:21:13.716Z,19.27
2023-02-05T20:23:42.017Z,17.07
2023-02-05T20:26:10.583Z,12.10
2023-02-05T20:29:00.809Z,14.83
2023-02-05T20:31:35.351Z,20.57
2023-02-05T20:34:04.288Z,14.80
2023-02-05T20:36:35.021Z,16.70
2023-02-05T20:39:07.390Z,16.30
2023-02-05T20:41:35.530Z,15.50
2023-02-05T20:44:04.309Z,15.17
2023-02-05T20:46:32.488Z,19.40
2023-02-05T20:49:01.133Z,15.10
2023-02-05T20:51:29.180Z,16.57
2023-02-05T20:53:59.228Z,17.17
2023-02-05T20:56:28.790Z,18.47
2023-02-05T20:58:59.468Z,15.67
2023-02-05T21:01:28.923Z,13.97
2023-02-05T21:03:58.988Z,17.83
2023-02-05T21:06:27.786Z,12.97
2023-02-05T21:08:56.390Z,14.83
2023-02-05T21:11:27.079Z,15.67
2023-02-05T21:13:58.675Z,16.53
2023-02-05T21:16:28.059Z,16.57
2023-02-05T21:18:56.639Z,16.70
2023-02-05T21:21:25.855Z,17.60
2023-02-05T21:23:57.595Z,13.90
2023-02-05T21:26:29.259Z,15.67
2023-02-05T21:28:58.848Z,13.73
2023-02-05T21:31:33.763Z,14.37
2023-02-05T21:34:02.067Z,14.47
2023-02-05T21:36:30.496Z,13.37
2023-02-05T21:38:58.575Z,17.00
2023-02-05T21:41:28.035Z,23.63
2023-02-05T21:43:57.452Z,16.27
2023-02-05T21:46:26.518Z,17.23
2023-02-05T21:48:56.140Z,13.73
2023-02-05T21:51:25.574Z,24.13
2023-02-05T21:53:57.117Z,18.60
2023-02-05T21:56:25.893Z,23.63
2023-02-05T21:58:55.149Z,67.23
2023-02-05T22:01:24.997Z,32.77
2023-02-05T22:03:54.874Z,14.47
2023-02-05T22:06:24.013Z,78.17
2023-02-05T22:08:52.575Z,29.83
2023-02-05T22:11:22.410Z,17.23
2023-02-05T22:13:52.077Z,46.37
2023-02-05T22:16:23.361Z,35.10
2023-02-05T22:18:51.908Z,23.57
2023-02-05T22:21:21.728Z,16.20
2023-02-05T22:23:50.964Z,22.87
2023-02-05T22:26:20.961Z,18.47
2023-02-05T22:28:49.640Z,17.20
2023-02-05T22:31:19.818Z,9.70
2023-02-05T22:33:50.449Z,16.90
2023-02-05T22:36:20.187Z,10.40
2023-02-05T22:38:48.748Z,7.30
2023-02-05T22:41:18.306Z,12.47
2023-02-05T22:43:46.453Z,12.63
2023-02-05T22:46:16.176Z,15.13
2023-02-05T22:48:45.176Z,18.10
2023-02-05T22:51:15.913Z,10.20
2023-02-05T22:53:43.924Z,20.47
2023-02-05T22:56:13.231Z,10.87
2023-02-05T22:58:42.195Z,19.27
2023-02-05T23:01:10.952Z,11.63
2023-02-05T23:03:39.326Z,8.00
2023-02-05T23:06:11.240Z,9.53
2023-02-05T23:08:40.648Z,10.23
2023-02-05T23:11:10.511Z,14.00
2023-02-05T23:13:38.485Z,9.03
2023-02-05T23:16:08.128Z,10.07
2023-02-05T23:18:36.222Z,12.60
2023-02-05T23:21:08.768Z,11.20
2023-02-05T23:23:36.718Z,23.70
2023-02-05T23:26:09.570Z,18.83
2023-02-05T23:28:37.533Z,21.13
2023-02-05T23:31:05.756Z,22.63
2023-02-05T23:33:34.157Z,11.90
2023-02-05T23:36:02.102Z,14.03
2023-02-05T23:38:30.745Z,16.50
2023-02-05T23:40:59.184Z,16.73
2023-02-05T23:43:28.574Z,14.37
2023-02-05T23:45:56.559Z,19.40
2023-02-05T23:48:24.549Z,39.57
2023-02-05T23:50:53.176Z,20.33
2023-02-05T23:53:22.413Z,21.97
2023-02-05T23:55:51.490Z,23.23
2023-02-05T23:58:20.422Z,52.23
